Time;durP1;ratioP1;P1;durP2;ratioP2;P2;SDS_P1;SDS_P2;PMS_P1;PMS_P2;Temp;Humidity;BMP_temperature;BMP_pressure;BME280_temperature;BME280_humidity;BME280_pressure;Samples;Min_cycle;Max_cycle;Signal;HPM_P1;HPM_P2
2023/07/03 00:01:26;;;;;;;1.15;0.65;;;;;;;18.59;59.36;99924.00;4992655;28;20034;-64
2023/07/03 00:03:52;;;;;;;1.23;0.60;;;;;;;18.59;59.54;99918.56;4991936;28;20030;-64
2023/07/03 00:06:17;;;;;;;0.93;0.77;;;;;;;18.62;59.01;99912.25;4990228;28;20125;-64
2023/07/03 00:09:03;;;;;;;1.17;0.70;;;;;;;18.55;59.31;99898.78;4983131;28;20030;-63
2023/07/03 00:11:28;;;;;;;0.57;0.50;;;;;;;18.48;59.96;99905.19;4943204;29;20059;-64
2023/07/03 00:13:54;;;;;;;1.63;0.50;;;;;;;18.48;60.17;99901.69;4938530;29;20047;-64
2023/07/03 00:16:20;;;;;;;3.63;0.80;;;;;;;18.46;60.08;99899.38;4946337;29;20043;-66
2023/07/03 00:18:47;;;;;;;2.08;0.80;;;;;;;18.34;60.30;99904.72;4934205;29;20024;-63
2023/07/03 00:21:13;;;;;;;1.52;0.70;;;;;;;18.28;61.04;99904.47;4930721;29;20560;-63
2023/07/03 00:23:39;;;;;;;0.95;0.65;;;;;;;18.24;60.75;99903.00;4942223;29;20054;-64
2023/07/03 00:26:05;;;;;;;0.60;0.38;;;;;;;18.32;60.37;99896.19;4940498;28;20035;-64
2023/07/03 00:28:30;;;;;;;0.75;0.40;;;;;;;18.13;61.30;99899.75;4919285;29;20423;-63
2023/07/03 00:30:57;;;;;;;5.70;1.20;;;;;;;18.28;59.72;99904.47;4933934;29;20459;-63
2023/07/03 00:33:22;;;;;;;1.05;0.52;;;;;;;18.36;60.15;99902.31;4938177;29;20035;-63
2023/07/03 00:35:48;;;;;;;1.48;0.75;;;;;;;18.50;59.51;99902.03;4927031;29;20052;-64
2023/07/03 00:38:13;;;;;;;2.30;0.65;;;;;;;18.54;58.73;99894.53;4938155;28;20043;-63
2023/07/03 00:40:38;;;;;;;2.40;0.77;;;;;;;18.49;58.90;99895.03;4920568;29;20039;-63
2023/07/03 00:43:04;;;;;;;1.58;0.93;;;;;;;18.45;59.30;99897.84;4925897;29;20031;-63
2023/07/03 00:45:32;;;;;;;1.38;0.60;;;;;;;18.38;59.96;99891.75;4925884;29;20103;-64
2023/07/03 00:47:58;;;;;;;2.80;0.77;;;;;;;18.38;59.29;99884.34;4958239;28;20467;-64
2023/07/03 00:50:24;;;;;;;1.52;0.93;;;;;;;18.37;59.94;99895.69;4954020;28;20062;-65
2023/07/03 00:52:55;;;;;;;1.25;0.55;;;;;;;18.30;60.10;99893.91;4969035;28;20491;-64
2023/07/03 00:55:22;;;;;;;1.15;0.73;;;;;;;18.35;60.30;99885.19;4959228;28;20065;-64
2023/07/03 00:57:47;;;;;;;1.60;0.73;;;;;;;18.36;59.56;99881.28;4973226;28;20126;-64
2023/07/03 01:00:15;;;;;;;0.80;0.50;;;;;;;18.47;59.18;99881.03;4978954;28;20435;-65
2023/07/03 01:02:58;;;;;;;1.60;0.52;;;;;;;18.23;59.56;99880.44;4959568;28;20049;-65
2023/07/03 01:05:33;;;;;;;3.03;0.52;;;;;;;18.29;59.70;99886.16;4978168;28;20113;-65
2023/07/03 01:08:00;;;;;;;0.88;0.60;;;;;;;18.30;59.80;99879.50;4956634;28;20047;-64
2023/07/03 01:10:29;;;;;;;0.80;0.52;;;;;;;18.26;59.68;99881.53;4966224;28;20054;-65
2023/07/03 01:13:00;;;;;;;0.50;0.50;;;;;;;18.27;59.55;99875.69;4965706;28;20096;-65
2023/07/03 01:15:30;;;;;;;0.90;0.40;;;;;;;18.29;58.69;99878.72;4987767;28;20026;-65
2023/07/03 01:17:57;;;;;;;1.02;0.70;;;;;;;18.38;58.31;99886.31;4972470;28;20035;-64
2023/07/03 01:20:25;;;;;;;2.40;0.80;;;;;;;18.21;59.44;99880.09;4982977;28;20034;-65
2023/07/03 01:23:07;;;;;;;1.15;0.55;;;;;;;18.34;59.29;99877.44;4972839;28;20019;-65
2023/07/03 01:25:36;;;;;;;1.27;0.68;;;;;;;18.21;59.86;99876.59;4987262;28;20039;-64
2023/07/03 01:28:03;;;;;;;0.85;0.50;;;;;;;18.23;59.46;99868.75;4967101;28;20391;-65
2023/07/03 01:30:30;;;;;;;4.45;0.57;;;;;;;18.29;59.05;99872.50;4958462;28;20035;-65
2023/07/03 01:32:58;;;;;;;0.55;0.30;;;;;;;18.17;58.59;99875.91;4972206;28;20079;-64
2023/07/03 01:35:25;;;;;;;0.75;0.47;;;;;;;18.18;59.15;99869.25;4972696;28;20034;-65
2023/07/03 01:37:53;;;;;;;1.13;0.80;;;;;;;18.14;60.45;99868.59;4972980;28;20368;-65
2023/07/03 01:40:23;;;;;;;1.27;0.52;;;;;;;18.15;59.51;99859.22;4968807;28;20038;-65
2023/07/03 01:42:52;;;;;;;0.75;0.55;;;;;;;18.25;59.42;99860.94;4966682;28;20031;-64
2023/07/03 01:45:17;;;;;;;1.63;1.10;;;;;;;18.16;60.03;99863.44;4960706;28;20030;-64
2023/07/03 01:47:43;;;;;;;0.45;0.40;;;;;;;18.17;60.31;99862.28;4962679;28;20031;-64
2023/07/03 01:50:15;;;;;;;4.25;1.20;;;;;;;18.23;60.09;99850.44;4970521;28;20487;-64
2023/07/03 01:52:50;;;;;;;2.00;0.90;;;;;;;18.14;60.74;99855.72;4956081;28;20097;-64
2023/07/03 01:55:27;;;;;;;1.80;1.02;;;;;;;18.19;60.27;99849.78;4972583;28;20050;-65
2023/07/03 01:57:59;;;;;;;0.55;0.55;;;;;;;18.27;59.87;99850.38;4971490;28;20038;-65
2023/07/03 02:00:49;;;;;;;3.20;1.20;;;;;;;18.20;60.75;99848.56;4956299;28;20492;-64
2023/07/03 02:03:40;;;;;;;1.88;1.02;;;;;;;18.15;60.58;99851.03;4949370;28;20081;-63
2023/07/03 02:06:28;;;;;;;2.10;0.70;;;;;;;18.12;61.56;99841.00;4979026;28;20197;-64
2023/07/03 02:08:55;;;;;;;0.90;0.57;;;;;;;18.09;62.72;99833.66;4981761;28;20038;-64
2023/07/03 02:11:22;;;;;;;3.63;0.80;;;;;;;18.12;62.01;99836.28;4968833;28;20482;-64
2023/07/03 02:13:51;;;;;;;;;;;;;;;18.19;61.89;99838.09;4964939;28;20026;-65
2023/07/03 02:16:20;;;;;;;1.17;0.65;;;;;;;18.24;61.33;99840.28;4966728;28;19973;-65
2023/07/03 02:18:49;;;;;;;1.30;0.68;;;;;;;18.29;61.74;99847.97;4973118;28;20105;-65
2023/07/03 02:21:16;;;;;;;2.08;0.80;;;;;;;18.24;62.68;99845.75;4954115;28;20041;-64
2023/07/03 02:23:42;;;;;;;0.68;0.35;;;;;;;18.20;63.45;99842.34;4954433;28;20510;-71
2023/07/03 02:26:09;;;;;;;1.40;0.60;;;;;;;18.07;63.32;99857.84;4953651;28;20031;-64
2023/07/03 02:28:36;;;;;;;1.67;1.00;;;;;;;18.25;62.84;99839.88;4953023;28;20365;-64
2023/07/03 02:31:02;;;;;;;0.80;0.57;;;;;;;18.35;62.79;99832.63;4986595;28;20081;-62
2023/07/03 02:33:29;;;;;;;0.93;0.70;;;;;;;18.24;63.62;99838.34;4961769;28;20046;-65
2023/07/03 02:35:54;;;;;;;3.53;0.82;;;;;;;18.25;62.88;99833.66;4983578;28;20027;-63
2023/07/03 02:38:20;;;;;;;2.65;0.60;;;;;;;18.21;63.26;99830.25;4962815;28;20153;-64
2023/07/03 02:40:46;;;;;;;0.63;0.50;;;;;;;18.20;63.27;99820.53;4970244;28;20029;-64
2023/07/03 02:43:12;;;;;;;1.45;1.17;;;;;;;18.24;62.86;99824.72;4961234;28;20491;-64
2023/07/03 02:45:41;;;;;;;0.82;0.68;;;;;;;18.15;62.90;99816.38;4970091;28;20512;-64
2023/07/03 02:48:10;;;;;;;0.63;0.40;;;;;;;18.15;63.66;99812.88;4971322;28;20049;-63
2023/07/03 02:50:39;;;;;;;1.20;0.55;;;;;;;18.18;62.98;99815.50;4962796;28;20093;-65
2023/07/03 02:53:05;;;;;;;0.90;0.75;;;;;;;18.15;62.79;99832.72;4970995;28;20061;-63
2023/07/03 02:55:32;;;;;;;2.63;0.50;;;;;;;18.10;63.00;99830.50;4970329;28;20034;-65
2023/07/03 02:57:58;;;;;;;1.73;0.73;;;;;;;18.02;64.09;99832.63;4964715;28;20395;-65
2023/07/03 03:00:25;;;;;;;1.52;0.82;;;;;;;18.02;63.86;99832.63;4969502;28;20037;-64
2023/07/03 03:02:51;;;;;;;1.77;0.70;;;;;;;18.00;64.24;99840.44;4950564;28;20042;-65
2023/07/03 03:05:16;;;;;;;1.75;0.95;;;;;;;18.04;64.09;99834.91;4981215;28;20038;-63
2023/07/03 03:07:42;;;;;;;2.00;1.00;;;;;;;17.87;65.43;99831.44;4958093;28;20113;-64
2023/07/03 03:10:28;;;;;;;4.60;0.93;;;;;;;17.87;65.68;99831.44;4956406;28;20034;-67
2023/07/03 03:12:54;;;;;;;2.60;0.70;;;;;;;17.92;65.03;99824.72;4923413;29;20559;-64
2023/07/03 03:15:19;;;;;;;1.55;0.80;;;;;;;17.88;65.11;99829.47;4920104;29;20054;-63
2023/07/03 03:17:45;;;;;;;1.25;0.90;;;;;;;17.81;66.42;99813.28;4911026;29;20044;-63
2023/07/03 03:20:13;;;;;;;3.45;0.70;;;;;;;17.85;66.30;99822.91;4903177;29;20099;-64
2023/07/03 03:22:39;;;;;;;2.53;0.73;;;;;;;17.78;66.60;99825.03;4922342;29;20039;-63
2023/07/03 03:25:04;;;;;;;1.33;1.08;;;;;;;17.75;67.10;99820.44;4910261;29;20039;-62
2023/07/03 03:27:30;;;;;;;1.17;0.70;;;;;;;17.80;67.31;99828.09;4923614;29;20158;-66
2023/07/03 03:29:55;;;;;;;1.02;0.60;;;;;;;17.92;65.73;99811.84;4906436;29;20048;-66
2023/07/03 03:32:21;;;;;;;3.15;0.82;;;;;;;17.88;66.84;99821.31;4928610;29;20415;-65
2023/07/03 03:34:46;;;;;;;1.08;0.65;;;;;;;17.83;67.46;99817.13;4930840;29;20027;-66
2023/07/03 03:37:11;;;;;;;1.42;0.98;;;;;;;17.91;67.50;99815.75;4919830;29;20461;-67
2023/07/03 03:39:37;;;;;;;1.80;0.65;;;;;;;17.87;67.32;99814.31;4916754;29;20159;-66
2023/07/03 03:42:04;;;;;;;0.50;0.50;;;;;;;17.88;67.63;99819.34;4918269;29;20512;-64
2023/07/03 03:44:30;;;;;;;0.75;0.75;;;;;;;17.86;68.27;99815.50;4918239;29;20111;-67
2023/07/03 03:46:55;;;;;;;1.02;0.60;;;;;;;17.91;68.26;99815.75;4909049;29;20539;-66
2023/07/03 03:49:22;;;;;;;0.85;0.70;;;;;;;17.94;67.61;99820.34;4922926;28;20027;-66
2023/07/03 03:51:48;;;;;;;1.38;1.00;;;;;;;17.90;67.37;99818.91;4973721;28;20039;-67
2023/07/03 03:54:14;;;;;;;1.27;0.68;;;;;;;17.95;67.77;99818.41;4967913;28;20037;-64
2023/07/03 03:56:39;;;;;;;4.22;0.90;;;;;;;18.14;66.95;99822.25;4974805;28;20035;-64
2023/07/03 03:59:05;;;;;;;2.70;0.95;;;;;;;18.13;67.05;99817.97;4972465;28;20426;-67
2023/07/03 04:01:30;;;;;;;1.92;1.38;;;;;;;18.14;66.81;99817.56;4952160;28;20074;-67
2023/07/03 04:03:56;;;;;;;1.08;0.57;;;;;;;18.07;67.46;99814.22;4974304;28;20054;-64
2023/07/03 04:06:21;;;;;;;3.47;1.13;;;;;;;17.94;68.03;99825.06;4986056;28;20490;-67
2023/07/03 04:08:46;;;;;;;2.85;1.20;;;;;;;17.97;68.58;99821.47;4980309;28;20038;-64
2023/07/03 04:11:14;;;;;;;3.28;1.38;;;;;;;18.01;68.89;99812.03;4984111;28;20138;-64
2023/07/03 04:13:39;;;;;;;1.35;0.70;;;;;;;18.02;69.17;99808.09;4976853;28;20027;-64
2023/07/03 04:16:05;;;;;;;4.45;0.68;;;;;;;18.09;69.33;99811.84;4982589;28;20080;-64
2023/07/03 04:18:31;;;;;;;1.52;0.90;;;;;;;18.19;68.24;99817.06;4978293;28;20470;-64
2023/07/03 04:20:57;;;;;;;0.80;0.52;;;;;;;18.14;69.24;99816.81;4981151;28;20463;-65
2023/07/03 04:23:24;;;;;;;3.08;0.68;;;;;;;18.21;68.49;99820.13;4987253;28;20033;-65
2023/07/03 04:25:50;;;;;;;0.93;0.63;;;;;;;18.25;68.36;99820.03;4982540;28;20039;-66
2023/07/03 04:28:17;;;;;;;1.80;0.70;;;;;;;18.35;67.91;99827.94;4976099;28;20042;-66
2023/07/03 04:31:03;;;;;;;3.20;1.17;;;;;;;18.43;67.83;99823.88;4984683;28;20096;-65
2023/07/03 04:33:29;;;;;;;1.30;0.63;;;;;;;18.43;68.21;99825.81;4934220;29;20070;-65
2023/07/03 04:35:54;;;;;;;1.67;0.80;;;;;;;18.43;68.75;99836.72;4962344;28;20034;-66
2023/07/03 04:38:23;;;;;;;1.30;0.63;;;;;;;18.52;68.26;99831.47;4956521;28;20182;-65
2023/07/03 04:40:53;;;;;;;3.38;1.10;;;;;;;18.57;68.23;99831.69;4951939;29;20051;-65
2023/07/03 04:43:25;;;;;;;3.08;0.90;;;;;;;18.55;68.23;99828.63;4951268;29;20039;-65
2023/07/03 04:45:52;;;;;;;1.77;1.00;;;;;;;18.60;68.35;99841.00;4951555;28;20047;-65
2023/07/03 04:48:18;;;;;;;1.20;0.88;;;;;;;18.62;68.05;99827.69;4952498;29;20496;-65
2023/07/03 04:50:48;;;;;;;2.45;0.65;;;;;;;18.62;68.70;99833.16;4951937;29;20054;-65
2023/07/03 04:53:14;;;;;;;1.95;0.60;;;;;;;18.66;67.97;99837.31;4937465;29;20529;-65
2023/07/03 04:55:40;;;;;;;2.38;0.80;;;;;;;18.71;67.78;99834.06;4937866;28;20404;-65
2023/07/03 04:58:07;;;;;;;1.25;0.95;;;;;;;18.77;68.35;99835.09;4959989;28;20043;-65
2023/07/03 05:00:33;;;;;;;3.42;1.30;;;;;;;18.80;68.20;99827.97;4954634;28;20035;-65
2023/07/03 05:03:02;;;;;;;3.13;0.80;;;;;;;18.91;68.60;99823.78;4944471;28;20027;-65
2023/07/03 05:05:27;;;;;;;2.67;0.77;;;;;;;18.91;68.60;99828.47;4937545;29;20043;-64
2023/07/03 05:07:53;;;;;;;3.08;1.25;;;;;;;18.99;69.14;99829.78;4944623;28;20053;-63
2023/07/03 05:10:21;;;;;;;2.63;0.90;;;;;;;19.16;68.63;99825.84;4955306;28;20061;-63
2023/07/03 05:12:47;;;;;;;1.83;0.73;;;;;;;19.21;68.18;99829.97;4973469;28;20034;-67
2023/07/03 05:15:14;;;;;;;1.58;1.23;;;;;;;19.23;68.03;99822.88;4972772;28;20038;-67
2023/07/03 05:17:40;;;;;;;1.83;0.98;;;;;;;19.52;67.48;99833.78;4961982;28;20039;-61
2023/07/03 05:20:14;;;;;;;2.80;1.02;;;;;;;19.97;66.82;99828.13;4967475;28;20018;-64
2023/07/03 05:22:42;;;;;;;3.45;0.80;;;;;;;20.65;64.47;99829.00;4970387;28;20067;-62
2023/07/03 05:25:09;;;;;;;1.27;0.77;;;;;;;21.13;62.01;99826.97;4962737;28;20053;-65
2023/07/03 05:27:35;;;;;;;2.30;0.88;;;;;;;21.55;60.16;99825.38;4971801;28;20108;-64
2023/07/03 05:30:01;;;;;;;3.97;1.02;;;;;;;21.75;58.52;99823.06;4981554;28;20507;-65
2023/07/03 05:32:27;;;;;;;2.60;1.33;;;;;;;22.04;57.30;99823.50;4978417;28;20042;-63
2023/07/03 05:34:52;;;;;;;1.23;0.80;;;;;;;22.31;56.79;99831.03;4960452;28;20533;-65
2023/07/03 05:37:18;;;;;;;1.15;0.85;;;;;;;22.38;55.90;99838.94;4973933;28;20030;-62
2023/07/03 05:39:46;;;;;;;2.28;1.05;;;;;;;22.33;55.74;99839.56;4984365;28;20084;-63
2023/07/03 05:42:13;;;;;;;1.48;0.70;;;;;;;22.58;55.34;99852.28;4982086;28;20045;-63
2023/07/03 05:44:38;;;;;;;1.73;0.90;;;;;;;22.64;54.57;99843.00;4973570;28;20042;-63
2023/07/03 05:47:04;;;;;;;3.83;0.70;;;;;;;22.70;54.54;99852.16;4969017;28;20039;-64
2023/07/03 05:49:29;;;;;;;5.60;1.20;;;;;;;22.68;54.66;99851.84;4971514;28;20026;-66
2023/07/03 05:51:54;;;;;;;2.40;0.93;;;;;;;22.79;55.47;99860.38;4972600;28;20050;-65
2023/07/03 05:54:21;;;;;;;1.50;0.73;;;;;;;22.86;56.40;99859.34;4973096;28;20108;-64
2023/07/03 05:57:20;;;;;;;1.42;0.65;;;;;;;22.83;54.88;99858.25;4963364;28;20058;-63
2023/07/03 05:59:45;;;;;;;1.98;0.82;;;;;;;23.03;54.91;99861.31;4926454;28;20043;-68
2023/07/03 06:02:13;;;;;;;0.90;0.70;;;;;;;22.89;55.64;99864.66;4969195;28;20031;-63
2023/07/03 06:04:39;;;;;;;2.10;0.95;;;;;;;23.01;54.80;99866.50;4977126;28;20038;-63
2023/07/03 06:07:05;;;;;;;3.40;1.10;;;;;;;23.02;54.60;99865.28;4941552;28;20042;-68
2023/07/03 06:09:32;;;;;;;4.57;0.80;;;;;;;23.03;54.25;99869.56;4968186;28;20038;-66
2023/07/03 06:11:57;;;;;;;1.45;1.00;;;;;;;23.10;54.57;99876.72;4970877;28;20050;-64
2023/07/03 06:14:23;;;;;;;1.30;0.75;;;;;;;23.34;53.51;99885.91;4968659;28;20410;-64
2023/07/03 06:16:50;;;;;;;0.95;0.60;;;;;;;23.27;52.96;99877.91;4973241;28;20034;-64
2023/07/03 06:19:17;;;;;;;2.25;1.20;;;;;;;23.50;52.78;99880.03;4976393;28;20041;-64
2023/07/03 06:21:42;;;;;;;1.17;0.50;;;;;;;23.41;53.34;99885.56;4970047;28;20031;-67
2023/07/03 06:24:10;;;;;;;2.95;1.27;;;;;;;23.55;52.20;99893.19;4972126;28;20045;-63
2023/07/03 06:26:38;;;;;;;4.68;1.05;;;;;;;23.26;52.60;99888.16;4978111;28;20050;-64
2023/07/03 06:29:04;;;;;;;0.65;0.40;;;;;;;22.92;53.42;99895.94;4972760;28;20049;-63
2023/07/03 06:31:30;;;;;;;1.40;0.80;;;;;;;22.66;54.46;99897.44;4977793;28;20121;-63
2023/07/03 06:33:56;;;;;;;1.52;0.82;;;;;;;22.49;55.10;99894.19;4975915;28;20142;-64
2023/07/03 06:36:25;;;;;;;3.63;1.10;;;;;;;22.38;55.76;99880.88;4967461;28;20038;-63
2023/07/03 06:38:58;;;;;;;6.72;1.13;;;;;;;22.15;57.05;99897.13;4965626;28;20081;-63
2023/07/03 06:41:27;;;;;;;1.35;0.80;;;;;;;21.68;58.18;99882.88;4970399;28;20502;-65
2023/07/03 06:43:53;;;;;;;4.00;0.85;;;;;;;21.46;58.54;99888.38;4969086;28;20022;-65
2023/07/03 06:46:22;;;;;;;3.90;0.70;;;;;;;21.22;60.46;99895.50;4977824;28;20127;-66
2023/07/03 06:48:48;;;;;;;2.65;0.70;;;;;;;21.17;61.08;99888.63;4977963;28;20042;-64
2023/07/03 06:51:17;;;;;;;1.52;0.52;;;;;;;21.14;60.77;99889.50;4974804;28;20034;-66
2023/07/03 06:53:42;;;;;;;1.38;0.70;;;;;;;21.14;61.14;99896.97;4977251;28;20050;-63
2023/07/03 06:56:11;;;;;;;0.65;0.65;;;;;;;21.02;61.99;99892.31;4986902;28;20034;-66
2023/07/03 06:58:36;;;;;;;1.65;0.70;;;;;;;20.81;61.07;99899.22;4983879;28;20068;-64
2023/07/03 07:01:12;;;;;;;2.63;0.93;;;;;;;21.01;60.44;99907.97;4984222;28;20077;-66
2023/07/03 07:03:38;;;;;;;3.00;0.80;;;;;;;21.13;60.12;99901.69;4977115;28;20038;-63
2023/07/03 07:06:15;;;;;;;0.50;0.50;;;;;;;21.06;59.87;99912.13;4970108;28;20035;-62
2023/07/03 07:08:41;;;;;;;2.90;1.02;;;;;;;20.95;60.38;99906.97;4968834;28;20026;-66
2023/07/03 07:11:12;;;;;;;2.20;0.60;;;;;;;20.95;60.86;99908.94;4975902;28;20057;-64
2023/07/03 07:13:42;;;;;;;3.63;0.63;;;;;;;21.20;60.55;99908.88;4952726;28;20516;-64
2023/07/03 07:16:22;;;;;;;1.48;0.35;;;;;;;21.62;59.89;99912.06;4986152;28;20030;-64
2023/07/03 07:18:55;;;;;;;0.98;0.30;;;;;;;22.03;59.83;99909.72;4973966;28;20046;-64
2023/07/03 07:21:21;;;;;;;1.50;0.47;;;;;;;22.42;57.27;99908.19;4957050;28;20092;-65
2023/07/03 07:23:51;;;;;;;0.63;0.47;;;;;;;22.72;56.66;99914.84;4963440;28;20034;-66
2023/07/03 07:26:17;;;;;;;2.57;0.63;;;;;;;22.94;56.14;99905.25;4976016;28;20042;-69
2023/07/03 07:28:43;;;;;;;1.40;0.50;;;;;;;23.26;54.15;99899.16;4973601;28;20141;-66
2023/07/03 07:31:08;;;;;;;3.17;0.57;;;;;;;23.33;53.81;99900.84;4971842;28;20036;-63
2023/07/03 07:33:33;;;;;;;3.55;0.45;;;;;;;23.49;53.98;99899.75;4974301;28;20057;-62
2023/07/03 07:35:59;;;;;;;0.57;0.50;;;;;;;23.71;52.90;99906.56;4970209;28;20027;-67
2023/07/03 07:38:24;;;;;;;1.75;0.65;;;;;;;23.69;52.79;99897.28;4972553;28;20054;-68
2023/07/03 07:41:00;;;;;;;2.13;0.77;;;;;;;23.72;52.19;99901.84;4972200;28;20070;-64
2023/07/03 07:43:25;;;;;;;1.50;0.57;;;;;;;23.57;51.36;99906.47;4977560;28;20046;-63
2023/07/03 07:45:54;;;;;;;0.70;0.50;;;;;;;23.27;51.78;99906.16;4978626;28;20038;-64
2023/07/03 07:48:19;;;;;;;1.80;0.50;;;;;;;23.03;52.26;99913.53;4968434;28;20039;-64
2023/07/03 07:50:45;;;;;;;1.35;0.60;;;;;;;22.93;52.93;99909.25;4978699;28;20041;-66
2023/07/03 07:53:10;;;;;;;1.60;0.63;;;;;;;22.64;53.64;99908.88;4968873;28;20118;-64
2023/07/03 07:55:58;;;;;;;0.95;0.50;;;;;;;22.63;53.99;99907.34;4980625;28;20061;-66
2023/07/03 07:58:24;;;;;;;0.70;0.50;;;;;;;22.58;54.52;99904.44;4939211;28;20087;-62
2023/07/03 08:00:51;;;;;;;0.35;0.30;;;;;;;22.55;54.97;99910.81;4937969;29;20043;-63
2023/07/03 08:03:17;;;;;;;2.53;0.93;;;;;;;22.61;54.57;99903.56;4942516;29;20552;-63
2023/07/03 08:05:43;;;;;;;2.38;0.70;;;;;;;22.49;55.53;99905.19;4945113;29;20068;-63
2023/07/03 08:08:08;;;;;;;5.28;0.73;;;;;;;22.63;55.04;99910.09;4944022;29;20516;-66
2023/07/03 08:10:33;;;;;;;0.65;0.32;;;;;;;22.45;55.16;99907.28;4930662;29;20056;-63
2023/07/03 08:12:59;;;;;;;1.33;0.50;;;;;;;22.34;55.16;99910.44;4933946;29;20027;-65
2023/07/03 08:15:25;;;;;;;4.72;0.88;;;;;;;22.36;53.33;99915.47;4929563;29;20055;-64
2023/07/03 08:17:50;;;;;;;5.47;0.57;;;;;;;22.61;53.44;99912.53;4947710;29;20067;-66
2023/07/03 08:20:17;;;;;;;2.80;0.70;;;;;;;23.01;53.00;99913.22;4935453;29;20048;-64
2023/07/03 08:22:43;;;;;;;1.95;0.60;;;;;;;23.20;52.72;99917.47;4937865;29;20505;-66
2023/07/03 08:25:09;;;;;;;1.63;0.47;;;;;;;23.28;52.80;99924.22;4919156;29;20035;-65
2023/07/03 08:27:35;;;;;;;0.73;0.30;;;;;;;23.23;51.21;99924.03;4937634;29;20071;-65
2023/07/03 08:30:01;;;;;;;1.20;0.50;;;;;;;23.14;55.02;99938.56;4940060;29;20110;-65
2023/07/03 08:32:27;;;;;;;0.80;0.80;;;;;;;22.78;57.17;99935.78;4938553;29;20105;-66
2023/07/03 08:34:54;;;;;;;0.68;0.52;;;;;;;22.64;57.73;99935.56;4955467;28;20106;-65
2023/07/03 08:37:19;;;;;;;1.10;0.63;;;;;;;22.61;59.53;99934.50;4989953;28;20034;-65
2023/07/03 08:39:45;;;;;;;1.67;0.57;;;;;;;22.95;58.75;99939.00;4977650;28;20042;-64
2023/07/03 08:42:13;;;;;;;0.50;0.50;;;;;;;23.19;57.36;99928.91;4984645;28;20558;-64
2023/07/03 08:44:38;;;;;;;1.90;0.57;;;;;;;23.51;56.50;99933.06;4967923;28;20081;-64
2023/07/03 08:47:09;;;;;;;1.45;0.52;;;;;;;24.00;55.17;99937.06;4975590;28;20550;-65
2023/07/03 08:49:36;;;;;;;0.38;0.38;;;;;;;24.31;54.24;99931.34;4961383;28;20574;-64
2023/07/03 08:52:03;;;;;;;3.60;1.45;;;;;;;24.38;52.90;99939.25;4965561;28;20042;-64
2023/07/03 08:54:34;;;;;;;1.15;0.65;;;;;;;24.35;52.57;99925.66;4983609;28;20109;-64
2023/07/03 08:57:02;;;;;;;0.60;0.40;;;;;;;24.28;52.96;99925.97;4984846;28;20029;-64
2023/07/03 08:59:28;;;;;;;0.70;0.52;;;;;;;24.20;52.90;99925.56;4979279;28;20030;-65
2023/07/03 09:02:08;;;;;;;1.60;0.50;;;;;;;24.11;51.67;99945.63;4986198;28;20569;-70
2023/07/03 09:04:39;;;;;;;1.95;0.73;;;;;;;23.69;50.53;99941.28;4978731;28;20057;-64
2023/07/03 09:07:09;;;;;;;0.70;0.40;;;;;;;23.44;49.80;99953.38;4979618;28;20125;-64
2023/07/03 09:09:41;;;;;;;2.90;0.30;;;;;;;23.23;50.78;99946.00;4979613;28;20426;-62
2023/07/03 09:12:14;;;;;;;1.20;0.70;;;;;;;23.22;51.56;99947.25;4961543;28;20031;-64
2023/07/03 09:14:46;;;;;;;0.50;0.40;;;;;;;23.42;52.79;99949.56;4983477;28;20034;-63
2023/07/03 09:17:12;;;;;;;0.38;0.28;;;;;;;23.83;51.98;99944.16;4972955;28;20027;-64
2023/07/03 09:19:47;;;;;;;0.77;0.47;;;;;;;24.11;51.73;99939.38;4974242;28;20037;-65
2023/07/03 09:22:32;;;;;;;0.65;0.20;;;;;;;24.59;50.79;99945.72;4983415;28;20030;-65
2023/07/03 09:25:02;;;;;;;0.93;0.43;;;;;;;24.93;49.88;99948.00;4981319;28;20077;-65
2023/07/03 09:27:28;;;;;;;2.47;0.50;;;;;;;25.19;47.88;99951.00;4962978;28;20531;-66
2023/07/03 09:29:59;;;;;;;0.65;0.45;;;;;;;25.43;46.92;99946.25;4971544;28;20030;-63
2023/07/03 09:32:30;;;;;;;3.42;0.40;;;;;;;25.39;47.31;99949.19;4980676;28;20650;-63
2023/07/03 09:35:01;;;;;;;;;;;;;;;25.71;46.17;99958.53;4976903;28;20030;-68
2023/07/03 09:37:27;;;;;;;2.60;0.52;;;;;;;25.74;46.50;99952.09;4984570;28;19913;-63
2023/07/03 09:39:53;;;;;;;2.17;0.45;;;;;;;25.46;47.02;99959.06;4972669;28;20101;-63
2023/07/03 09:42:21;;;;;;;0.70;0.65;;;;;;;25.20;47.46;99967.09;4973723;28;20030;-64
2023/07/03 09:44:46;;;;;;;1.13;0.40;;;;;;;25.14;47.23;99959.94;4975352;28;20040;-64
2023/07/03 09:47:30;;;;;;;1.17;0.60;;;;;;;24.84;48.02;99965.34;4985522;28;20117;-65
2023/07/03 09:50:05;;;;;;;1.63;0.40;;;;;;;24.97;48.67;99974.13;4972944;28;20494;-67
2023/07/03 09:52:31;;;;;;;1.10;0.82;;;;;;;25.17;49.72;99967.25;4977521;28;20127;-64
2023/07/03 09:55:00;;;;;;;0.50;0.38;;;;;;;25.63;48.46;99974.72;4945289;28;20102;-71
2023/07/03 09:57:27;;;;;;;1.55;0.52;;;;;;;25.87;48.22;99974.63;4979411;28;20034;-67
2023/07/03 09:59:54;;;;;;;2.03;0.43;;;;;;;26.20;47.94;99968.94;4973367;28;20036;-65
2023/07/03 10:02:23;;;;;;;0.95;0.50;;;;;;;26.40;47.52;99983.56;4971522;28;20636;-70
2023/07/03 10:04:48;;;;;;;1.95;0.60;;;;;;;26.54;45.87;99970.94;4954133;28;20491;-67
2023/07/03 10:07:16;;;;;;;0.95;0.50;;;;;;;26.16;45.46;99987.69;4972715;28;20041;-64
2023/07/03 10:09:44;;;;;;;1.10;0.25;;;;;;;25.83;44.58;100001.66;4971178;28;20043;-66
2023/07/03 10:12:28;;;;;;;0.20;0.17;;;;;;;25.55;44.60;99997.63;4953320;28;20030;-64
2023/07/03 10:15:06;;;;;;;1.30;0.20;;;;;;;25.35;44.12;100000.22;4971027;28;20031;-68
2023/07/03 10:17:45;;;;;;;2.65;0.45;;;;;;;25.46;42.84;100009.50;4958423;28;20122;-68
2023/07/03 10:20:19;;;;;;;0.85;0.10;;;;;;;25.74;43.00;99999.00;4968888;28;20037;-65
2023/07/03 10:22:45;;;;;;;2.38;0.32;;;;;;;25.94;42.13;100004.59;4978538;28;20034;-67
2023/07/03 10:25:18;;;;;;;0.30;0.20;;;;;;;26.20;41.91;99994.53;4982280;28;20085;-67
2023/07/03 10:27:45;;;;;;;0.35;0.10;;;;;;;26.13;42.72;99997.69;4985624;28;20042;-65
2023/07/03 10:30:18;;;;;;;0.70;0.20;;;;;;;26.29;42.44;99999.97;4975772;28;20460;-67
2023/07/03 10:32:47;;;;;;;0.35;0.30;;;;;;;26.15;42.54;100000.72;4952973;28;20057;-65
2023/07/03 10:35:24;;;;;;;0.73;0.20;;;;;;;25.95;42.61;100000.63;4973085;28;20038;-65
2023/07/03 10:38:01;;;;;;;1.45;0.50;;;;;;;25.91;42.24;100000.81;4972966;28;20519;-67
2023/07/03 10:40:56;;;;;;;0.43;0.40;;;;;;;25.96;43.57;99998.63;4974502;28;20066;-64
2023/07/03 10:43:25;;;;;;;0.30;0.30;;;;;;;25.92;42.58;99991.28;4969956;28;20042;-67
2023/07/03 10:45:51;;;;;;;2.13;0.32;;;;;;;25.68;43.46;100006.41;4979902;28;20042;-64
2023/07/03 10:48:26;;;;;;;0.60;0.28;;;;;;;25.20;45.91;99991.13;4960917;28;20596;-66
2023/07/03 10:51:01;;;;;;;0.45;0.20;;;;;;;25.21;44.04;100001.69;4946726;28;20030;-67
2023/07/03 10:53:39;;;;;;;0.80;0.63;;;;;;;24.96;45.49;100008.44;4944295;28;20379;-64
2023/07/03 10:56:19;;;;;;;0.95;0.30;;;;;;;24.67;46.21;100026.78;4969379;28;20094;-65
2023/07/03 10:58:58;;;;;;;1.95;0.22;;;;;;;24.67;46.77;100055.09;4974923;28;20125;-65
2023/07/03 11:01:48;;;;;;;0.93;0.22;;;;;;;24.39;48.42;100033.63;4981179;28;20149;-67
2023/07/03 11:04:27;;;;;;;2.67;0.47;;;;;;;24.12;49.57;100054.50;4970593;28;20038;-65
2023/07/03 11:07:18;;;;;;;0.30;0.30;;;;;;;23.69;50.61;100054.81;4980592;28;20053;-65
2023/07/03 11:10:13;;;;;;;0.30;0.10;;;;;;;23.28;50.80;100055.38;4972849;28;20039;-64
2023/07/03 11:13:01;;;;;;;0.90;0.30;;;;;;;23.12;52.19;100058.38;4953879;28;20046;-64
2023/07/03 11:15:49;;;;;;;0.60;0.20;;;;;;;22.58;54.74;100067.19;4965738;28;20421;-66
2023/07/03 11:18:48;;;;;;;0.10;0.10;;;;;;;22.31;56.50;100065.06;4966541;28;20039;-66
2023/07/03 11:21:22;;;;;;;0.25;0.20;;;;;;;22.25;58.15;100064.09;4962996;28;20081;-66
2023/07/03 11:23:58;;;;;;;0.77;0.28;;;;;;;22.02;62.47;100056.34;4966031;28;20066;-66
2023/07/03 11:26:56;;;;;;;1.10;0.20;;;;;;;21.87;66.48;100055.31;4968122;28;20039;-66
2023/07/03 11:29:22;;;;;;;1.27;0.13;;;;;;;21.97;66.34;100056.88;4933921;28;20042;-65
2023/07/03 11:31:49;;;;;;;0.50;0.28;;;;;;;22.06;64.76;100056.97;4969871;28;20058;-69
2023/07/03 11:34:19;;;;;;;0.80;0.20;;;;;;;22.21;64.46;100057.97;4969913;28;20086;-64
2023/07/03 11:36:54;;;;;;;1.38;0.32;;;;;;;22.49;63.05;100053.41;4980447;28;20106;-64
2023/07/03 11:39:24;;;;;;;0.13;0.13;;;;;;;22.77;61.72;100049.56;4960275;28;20039;-67
2023/07/03 11:41:50;;;;;;;0.80;0.20;;;;;;;23.22;58.05;100051.69;4967361;28;20527;-67
2023/07/03 11:44:18;;;;;;;0.20;0.15;;;;;;;23.67;57.21;100053.75;4956596;28;20031;-65